sensor_id;sensor_type;location;lat;lon;timestamp;temperature;humidity
66057;DHT22;52842;52.666;5.202;2022-09-09T00:01:35;21.80;76.30
66057;DHT22;52842;52.666;5.202;2022-09-09T00:04:05;21.70;76.30
66057;DHT22;52842;52.666;5.202;2022-09-09T00:06:42;21.80;76.30
66057;DHT22;52842;52.666;5.202;2022-09-09T00:09:12;21.70;76.20
66057;DHT22;52842;52.666;5.202;2022-09-09T00:11:39;21.70;76.20
66057;DHT22;52842;52.666;5.202;2022-09-09T00:14:08;21.70;76.20
66057;DHT22;52842;52.666;5.202;2022-09-09T00:16:38;21.70;76.90
66057;DHT22;52842;52.666;5.202;2022-09-09T00:19:08;21.70;76.20
66057;DHT22;52842;52.666;5.202;2022-09-09T00:21:43;21.70;76.20
66057;DHT22;52842;52.666;5.202;2022-09-09T00:24:18;21.70;76.10
66057;DHT22;52842;52.666;5.202;2022-09-09T00:26:47;21.70;76.20
66057;DHT22;52842;52.666;5.202;2022-09-09T00:29:17;21.70;76.20
66057;DHT22;52842;52.666;5.202;2022-09-09T00:31:46;21.70;76.20
66057;DHT22;52842;52.666;5.202;2022-09-09T00:34:14;21.70;76.20
66057;DHT22;52842;52.666;5.202;2022-09-09T00:36:41;21.60;76.10
66057;DHT22;52842;52.666;5.202;2022-09-09T00:39:09;21.70;76.20
66057;DHT22;52842;52.666;5.202;2022-09-09T00:41:43;21.60;76.10
66057;DHT22;52842;52.666;5.202;2022-09-09T00:44:17;21.70;76.20
66057;DHT22;52842;52.666;5.202;2022-09-09T00:46:53;21.60;76.10
66057;DHT22;52842;52.666;5.202;2022-09-09T00:49:24;21.60;76.10
66057;DHT22;52842;52.666;5.202;2022-09-09T00:51:59;21.60;76.20
66057;DHT22;52842;52.666;5.202;2022-09-09T00:54:31;21.60;76.10
66057;DHT22;52842;52.666;5.202;2022-09-09T00:57:03;21.60;76.20
66057;DHT22;52842;52.666;5.202;2022-09-09T00:59:35;21.60;76.20
66057;DHT22;52842;52.666;5.202;2022-09-09T01:02:07;21.60;76.10
66057;DHT22;52842;52.666;5.202;2022-09-09T01:04:40;21.60;76.10
66057;DHT22;52842;52.666;5.202;2022-09-09T01:07:09;21.60;76.20
66057;DHT22;52842;52.666;5.202;2022-09-09T01:09:42;21.60;76.10
66057;DHT22;52842;52.666;5.202;2022-09-09T01:12:14;21.50;76.20
66057;DHT22;52842;52.666;5.202;2022-09-09T01:14:42;21.60;76.20
66057;DHT22;52842;52.666;5.202;2022-09-09T01:17:11;21.50;76.20
66057;DHT22;52842;52.666;5.202;2022-09-09T01:19:50;21.50;76.10
66057;DHT22;52842;52.666;5.202;2022-09-09T01:22:24;21.50;76.20
66057;DHT22;52842;52.666;5.202;2022-09-09T01:25:10;21.50;76.20
66057;DHT22;52842;52.666;5.202;2022-09-09T01:27:41;21.50;76.20
66057;DHT22;52842;52.666;5.202;2022-09-09T01:30:10;21.50;76.20
66057;DHT22;52842;52.666;5.202;2022-09-09T01:32:39;21.50;76.20
66057;DHT22;52842;52.666;5.202;2022-09-09T01:35:06;21.50;76.20
66057;DHT22;52842;52.666;5.202;2022-09-09T01:37:34;21.50;76.20
66057;DHT22;52842;52.666;5.202;2022-09-09T01:40:00;21.50;76.20
66057;DHT22;52842;52.666;5.202;2022-09-09T01:42:27;21.50;76.20
66057;DHT22;52842;52.666;5.202;2022-09-09T01:44:55;21.50;76.20
66057;DHT22;52842;52.666;5.202;2022-09-09T01:47:22;21.40;76.20
66057;DHT22;52842;52.666;5.202;2022-09-09T01:49:48;21.50;76.20
66057;DHT22;52842;52.666;5.202;2022-09-09T01:52:15;21.40;76.20
66057;DHT22;52842;52.666;5.202;2022-09-09T01:54:42;21.40;76.20
66057;DHT22;52842;52.666;5.202;2022-09-09T01:57:10;21.40;76.20
66057;DHT22;52842;52.666;5.202;2022-09-09T01:59:45;21.40;76.20
66057;DHT22;52842;52.666;5.202;2022-09-09T02:02:16;21.40;76.20
66057;DHT22;52842;52.666;5.202;2022-09-09T02:04:45;21.40;76.20
66057;DHT22;52842;52.666;5.202;2022-09-09T02:07:16;21.40;76.20
66057;DHT22;52842;52.666;5.202;2022-09-09T02:09:47;21.40;76.20
66057;DHT22;52842;52.666;5.202;2022-09-09T02:12:16;21.40;76.20
66057;DHT22;52842;52.666;5.202;2022-09-09T02:14:46;21.40;76.20
66057;DHT22;52842;52.666;5.202;2022-09-09T02:17:16;21.40;76.20
66057;DHT22;52842;52.666;5.202;2022-09-09T02:19:45;21.40;76.20
66057;DHT22;52842;52.666;5.202;2022-09-09T02:22:14;21.40;76.20
66057;DHT22;52842;52.666;5.202;2022-09-09T02:24:42;21.40;76.20
66057;DHT22;52842;52.666;5.202;2022-09-09T02:27:11;21.30;76.20
66057;DHT22;52842;52.666;5.202;2022-09-09T02:29:40;21.30;76.20
66057;DHT22;52842;52.666;5.202;2022-09-09T02:32:08;21.30;76.20
66057;DHT22;52842;52.666;5.202;2022-09-09T02:34:39;21.30;76.20
66057;DHT22;52842;52.666;5.202;2022-09-09T02:37:07;21.30;76.20
66057;DHT22;52842;52.666;5.202;2022-09-09T02:39:34;21.30;76.20
66057;DHT22;52842;52.666;5.202;2022-09-09T02:42:01;21.30;76.20
66057;DHT22;52842;52.666;5.202;2022-09-09T02:44:29;21.30;76.20
66057;DHT22;52842;52.666;5.202;2022-09-09T02:47:04;21.30;76.20
66057;DHT22;52842;52.666;5.202;2022-09-09T02:49:35;21.30;76.20
66057;DHT22;52842;52.666;5.202;2022-09-09T02:52:07;21.30;76.20
66057;DHT22;52842;52.666;5.202;2022-09-09T02:54:34;21.30;76.20
66057;DHT22;52842;52.666;5.202;2022-09-09T02:57:02;21.30;76.20
66057;DHT22;52842;52.666;5.202;2022-09-09T02:59:30;21.20;76.20
66057;DHT22;52842;52.666;5.202;2022-09-09T03:01:56;21.20;76.20
66057;DHT22;52842;52.666;5.202;2022-09-09T03:04:23;21.20;76.20
66057;DHT22;52842;52.666;5.202;2022-09-09T03:06:50;21.20;76.20
66057;DHT22;52842;52.666;5.202;2022-09-09T03:09:18;21.20;76.20
66057;DHT22;52842;52.666;5.202;2022-09-09T03:11:45;21.20;76.20
66057;DHT22;52842;52.666;5.202;2022-09-09T03:14:11;21.20;76.20
66057;DHT22;52842;52.666;5.202;2022-09-09T03:16:38;21.20;76.20
66057;DHT22;52842;52.666;5.202;2022-09-09T03:19:05;21.20;76.20
66057;DHT22;52842;52.666;5.202;2022-09-09T03:21:32;21.20;76.20
66057;DHT22;52842;52.666;5.202;2022-09-09T03:23:59;21.20;76.20
66057;DHT22;52842;52.666;5.202;2022-09-09T03:26:27;21.20;76.20
66057;DHT22;52842;52.666;5.202;2022-09-09T03:28:53;21.10;76.10
66057;DHT22;52842;52.666;5.202;2022-09-09T03:31:20;21.20;76.20
66057;DHT22;52842;52.666;5.202;2022-09-09T03:33:47;21.20;76.20
66057;DHT22;52842;52.666;5.202;2022-09-09T03:36:13;21.10;76.10
66057;DHT22;52842;52.666;5.202;2022-09-09T03:38:40;21.10;76.10
66057;DHT22;52842;52.666;5.202;2022-09-09T03:41:07;21.10;76.10
66057;DHT22;52842;52.666;5.202;2022-09-09T03:43:35;21.10;76.10
66057;DHT22;52842;52.666;5.202;2022-09-09T03:46:02;21.10;76.20
66057;DHT22;52842;52.666;5.202;2022-09-09T03:48:29;21.10;76.20
66057;DHT22;52842;52.666;5.202;2022-09-09T03:50:56;21.10;76.20
66057;DHT22;52842;52.666;5.202;2022-09-09T03:53:25;21.10;76.20
66057;DHT22;52842;52.666;5.202;2022-09-09T03:55:53;21.10;76.20
66057;DHT22;52842;52.666;5.202;2022-09-09T03:58:20;21.10;76.20
66057;DHT22;52842;52.666;5.202;2022-09-09T04:00:54;21.10;76.20
66057;DHT22;52842;52.666;5.202;2022-09-09T04:03:21;21.10;76.20
66057;DHT22;52842;52.666;5.202;2022-09-09T04:05:50;21.10;76.20
66057;DHT22;52842;52.666;5.202;2022-09-09T04:08:16;21.10;76.20
66057;DHT22;52842;52.666;5.202;2022-09-09T04:10:46;21.10;76.10
66057;DHT22;52842;52.666;5.202;2022-09-09T04:13:13;21.10;76.20
66057;DHT22;52842;52.666;5.202;2022-09-09T04:15:41;21.10;76.20
66057;DHT22;52842;52.666;5.202;2022-09-09T04:18:09;21.10;76.20
66057;DHT22;52842;52.666;5.202;2022-09-09T04:20:37;21.10;76.20
66057;DHT22;52842;52.666;5.202;2022-09-09T04:23:03;21.10;76.10
66057;DHT22;52842;52.666;5.202;2022-09-09T04:25:30;21.00;76.10
66057;DHT22;52842;52.666;5.202;2022-09-09T04:27:58;21.10;76.10
66057;DHT22;52842;52.666;5.202;2022-09-09T04:30:24;21.00;76.00
66057;DHT22;52842;52.666;5.202;2022-09-09T04:32:52;21.00;76.00
66057;DHT22;52842;52.666;5.202;2022-09-09T04:35:20;21.00;76.00
66057;DHT22;52842;52.666;5.202;2022-09-09T04:37:47;21.10;76.00
66057;DHT22;52842;52.666;5.202;2022-09-09T04:40:14;21.00;75.90
66057;DHT22;52842;52.666;5.202;2022-09-09T04:42:40;21.00;75.90
66057;DHT22;52842;52.666;5.202;2022-09-09T04:45:09;21.00;75.90
66057;DHT22;52842;52.666;5.202;2022-09-09T04:47:36;21.00;75.90
66057;DHT22;52842;52.666;5.202;2022-09-09T04:50:03;21.00;75.90
66057;DHT22;52842;52.666;5.202;2022-09-09T04:52:33;21.00;75.90
66057;DHT22;52842;52.666;5.202;2022-09-09T04:54:59;21.00;75.80
66057;DHT22;52842;52.666;5.202;2022-09-09T04:57:26;21.00;75.80
66057;DHT22;52842;52.666;5.202;2022-09-09T04:59:54;21.00;75.80
66057;DHT22;52842;52.666;5.202;2022-09-09T05:02:20;21.00;75.80
66057;DHT22;52842;52.666;5.202;2022-09-09T05:04:47;21.00;75.80
66057;DHT22;52842;52.666;5.202;2022-09-09T05:07:14;21.00;76.50
66057;DHT22;52842;52.666;5.202;2022-09-09T05:09:42;21.00;75.80
66057;DHT22;52842;52.666;5.202;2022-09-09T05:12:10;21.00;75.80
66057;DHT22;52842;52.666;5.202;2022-09-09T05:14:37;21.00;75.70
66057;DHT22;52842;52.666;5.202;2022-09-09T05:17:04;21.00;75.80
66057;DHT22;52842;52.666;5.202;2022-09-09T05:19:31;21.00;75.80
66057;DHT22;52842;52.666;5.202;2022-09-09T05:21:57;21.00;75.90
66057;DHT22;52842;52.666;5.202;2022-09-09T05:24:24;21.00;75.90
66057;DHT22;52842;52.666;5.202;2022-09-09T05:26:52;21.00;76.00
66057;DHT22;52842;52.666;5.202;2022-09-09T05:29:19;20.90;75.90
66057;DHT22;52842;52.666;5.202;2022-09-09T05:31:45;21.00;76.00
66057;DHT22;52842;52.666;5.202;2022-09-09T05:34:12;21.00;76.00
66057;DHT22;52842;52.666;5.202;2022-09-09T05:36:39;20.90;76.10
66057;DHT22;52842;52.666;5.202;2022-09-09T05:39:05;20.90;76.30
66057;DHT22;52842;52.666;5.202;2022-09-09T05:41:32;21.00;76.40
66057;DHT22;52842;52.666;5.202;2022-09-09T05:44:01;20.90;76.30
66057;DHT22;52842;52.666;5.202;2022-09-09T05:46:28;21.00;76.30
66057;DHT22;52842;52.666;5.202;2022-09-09T05:48:55;21.00;76.20
66057;DHT22;52842;52.666;5.202;2022-09-09T05:51:24;20.90;76.10
66057;DHT22;52842;52.666;5.202;2022-09-09T05:53:52;20.90;76.10
66057;DHT22;52842;52.666;5.202;2022-09-09T05:56:20;20.90;76.00
66057;DHT22;52842;52.666;5.202;2022-09-09T05:58:49;20.90;76.00
66057;DHT22;52842;52.666;5.202;2022-09-09T06:01:19;20.90;76.00
66057;DHT22;52842;52.666;5.202;2022-09-09T06:03:46;20.90;75.90
66057;DHT22;52842;52.666;5.202;2022-09-09T06:06:14;20.90;75.90
66057;DHT22;52842;52.666;5.202;2022-09-09T06:08:42;20.90;75.80
66057;DHT22;52842;52.666;5.202;2022-09-09T06:11:11;20.90;75.90
66057;DHT22;52842;52.666;5.202;2022-09-09T06:13:37;20.90;75.90
66057;DHT22;52842;52.666;5.202;2022-09-09T06:16:05;20.90;75.90
66057;DHT22;52842;52.666;5.202;2022-09-09T06:18:33;20.90;75.90
66057;DHT22;52842;52.666;5.202;2022-09-09T06:21:00;20.90;75.80
66057;DHT22;52842;52.666;5.202;2022-09-09T06:23:29;20.90;75.80
66057;DHT22;52842;52.666;5.202;2022-09-09T06:26:03;20.90;75.70
66057;DHT22;52842;52.666;5.202;2022-09-09T06:28:30;20.80;75.70
66057;DHT22;52842;52.666;5.202;2022-09-09T06:30:58;20.80;75.60
66057;DHT22;52842;52.666;5.202;2022-09-09T06:33:25;20.80;75.70
66057;DHT22;52842;52.666;5.202;2022-09-09T06:35:53;20.80;75.60
66057;DHT22;52842;52.666;5.202;2022-09-09T06:38:20;20.80;75.60
66057;DHT22;52842;52.666;5.202;2022-09-09T06:40:52;20.80;75.70
66057;DHT22;52842;52.666;5.202;2022-09-09T06:43:20;20.80;75.70
66057;DHT22;52842;52.666;5.202;2022-09-09T06:45:55;20.80;75.70
66057;DHT22;52842;52.666;5.202;2022-09-09T06:48:22;20.80;75.70
66057;DHT22;52842;52.666;5.202;2022-09-09T06:50:48;20.80;75.70
66057;DHT22;52842;52.666;5.202;2022-09-09T06:53:17;20.80;75.70
66057;DHT22;52842;52.666;5.202;2022-09-09T06:55:45;20.80;75.70
66057;DHT22;52842;52.666;5.202;2022-09-09T06:58:12;20.80;75.70
66057;DHT22;52842;52.666;5.202;2022-09-09T07:00:38;20.80;75.70
66057;DHT22;52842;52.666;5.202;2022-09-09T07:03:05;20.80;75.70
66057;DHT22;52842;52.666;5.202;2022-09-09T07:05:32;20.80;75.70
66057;DHT22;52842;52.666;5.202;2022-09-09T07:07:58;20.80;75.60
66057;DHT22;52842;52.666;5.202;2022-09-09T07:10:26;20.80;75.60
66057;DHT22;52842;52.666;5.202;2022-09-09T07:12:53;20.80;75.60
66057;DHT22;52842;52.666;5.202;2022-09-09T07:15:20;20.80;75.50
66057;DHT22;52842;52.666;5.202;2022-09-09T07:17:46;20.80;75.50
66057;DHT22;52842;52.666;5.202;2022-09-09T07:20:13;20.80;75.40
66057;DHT22;52842;52.666;5.202;2022-09-09T07:22:40;20.80;75.40
66057;DHT22;52842;52.666;5.202;2022-09-09T07:25:07;20.80;75.30
66057;DHT22;52842;52.666;5.202;2022-09-09T07:27:35;20.80;75.40
66057;DHT22;52842;52.666;5.202;2022-09-09T07:30:02;20.80;75.30
66057;DHT22;52842;52.666;5.202;2022-09-09T07:32:29;20.80;75.30
66057;DHT22;52842;52.666;5.202;2022-09-09T07:34:56;20.80;75.30
66057;DHT22;52842;52.666;5.202;2022-09-09T07:37:23;20.80;75.40
66057;DHT22;52842;52.666;5.202;2022-09-09T07:39:50;20.80;75.50
66057;DHT22;52842;52.666;5.202;2022-09-09T07:42:17;20.80;75.40
66057;DHT22;52842;52.666;5.202;2022-09-09T07:44:46;20.80;75.40
66057;DHT22;52842;52.666;5.202;2022-09-09T07:47:12;20.80;75.40
66057;DHT22;52842;52.666;5.202;2022-09-09T07:49:39;20.80;75.40
66057;DHT22;52842;52.666;5.202;2022-09-09T07:52:06;20.80;75.50
66057;DHT22;52842;52.666;5.202;2022-09-09T07:54:32;20.80;75.50
66057;DHT22;52842;52.666;5.202;2022-09-09T07:56:59;20.80;75.50
66057;DHT22;52842;52.666;5.202;2022-09-09T07:59:26;20.80;75.50
66057;DHT22;52842;52.666;5.202;2022-09-09T08:01:56;20.80;75.40
66057;DHT22;52842;52.666;5.202;2022-09-09T08:04:23;20.80;75.40
66057;DHT22;52842;52.666;5.202;2022-09-09T08:06:52;20.80;75.40
66057;DHT22;52842;52.666;5.202;2022-09-09T08:09:19;20.80;75.40
66057;DHT22;52842;52.666;5.202;2022-09-09T08:11:46;20.80;75.40
66057;DHT22;52842;52.666;5.202;2022-09-09T08:14:13;20.80;75.40
66057;DHT22;52842;52.666;5.202;2022-09-09T08:16:40;20.80;75.30
66057;DHT22;52842;52.666;5.202;2022-09-09T08:19:09;20.80;75.30
66057;DHT22;52842;52.666;5.202;2022-09-09T08:21:36;20.80;75.30
66057;DHT22;52842;52.666;5.202;2022-09-09T08:24:04;20.80;75.20
66057;DHT22;52842;52.666;5.202;2022-09-09T08:26:31;20.80;75.20
66057;DHT22;52842;52.666;5.202;2022-09-09T08:29:00;20.80;75.20
66057;DHT22;52842;52.666;5.202;2022-09-09T08:31:27;20.80;75.20
66057;DHT22;52842;52.666;5.202;2022-09-09T08:33:54;20.80;75.20
66057;DHT22;52842;52.666;5.202;2022-09-09T08:36:23;20.70;75.20
66057;DHT22;52842;52.666;5.202;2022-09-09T08:38:51;20.70;75.30
66057;DHT22;52842;52.666;5.202;2022-09-09T08:41:25;20.70;75.20
66057;DHT22;52842;52.666;5.202;2022-09-09T08:43:58;20.80;75.30
66057;DHT22;52842;52.666;5.202;2022-09-09T08:46:27;20.70;75.20
66057;DHT22;52842;52.666;5.202;2022-09-09T08:49:00;20.70;75.40
66057;DHT22;52842;52.666;5.202;2022-09-09T08:51:29;20.80;75.70
66057;DHT22;52842;52.666;5.202;2022-09-09T08:53:59;20.80;75.70
66057;DHT22;52842;52.666;5.202;2022-09-09T08:56:28;20.80;75.60
66057;DHT22;52842;52.666;5.202;2022-09-09T08:58:58;20.80;75.50
66057;DHT22;52842;52.666;5.202;2022-09-09T09:01:33;20.80;75.50
66057;DHT22;52842;52.666;5.202;2022-09-09T09:04:03;20.80;75.30
66057;DHT22;52842;52.666;5.202;2022-09-09T09:06:38;20.80;75.30
66057;DHT22;52842;52.666;5.202;2022-09-09T09:09:10;20.80;75.20
66057;DHT22;52842;52.666;5.202;2022-09-09T09:11:38;20.80;75.10
66057;DHT22;52842;52.666;5.202;2022-09-09T09:14:08;20.80;75.00
66057;DHT22;52842;52.666;5.202;2022-09-09T09:16:38;20.80;75.00
66057;DHT22;52842;52.666;5.202;2022-09-09T09:19:06;20.80;74.90
66057;DHT22;52842;52.666;5.202;2022-09-09T09:21:39;20.80;75.10
66057;DHT22;52842;52.666;5.202;2022-09-09T09:24:12;20.80;75.00
66057;DHT22;52842;52.666;5.202;2022-09-09T09:26:43;20.80;75.00
66057;DHT22;52842;52.666;5.202;2022-09-09T09:29:11;20.80;75.00
66057;DHT22;52842;52.666;5.202;2022-09-09T09:31:38;20.80;74.90
66057;DHT22;52842;52.666;5.202;2022-09-09T09:34:04;20.80;74.80
66057;DHT22;52842;52.666;5.202;2022-09-09T09:36:37;20.80;74.80
66057;DHT22;52842;52.666;5.202;2022-09-09T09:39:06;20.80;74.70
66057;DHT22;52842;52.666;5.202;2022-09-09T09:41:35;20.80;74.70
66057;DHT22;52842;52.666;5.202;2022-09-09T09:44:04;20.80;74.60
66057;DHT22;52842;52.666;5.202;2022-09-09T09:46:31;20.80;74.50
66057;DHT22;52842;52.666;5.202;2022-09-09T09:48:59;20.80;74.50
66057;DHT22;52842;52.666;5.202;2022-09-09T09:51:26;20.80;74.40
66057;DHT22;52842;52.666;5.202;2022-09-09T09:53:53;20.80;74.40
66057;DHT22;52842;52.666;5.202;2022-09-09T09:56:27;20.80;74.40
66057;DHT22;52842;52.666;5.202;2022-09-09T09:58:55;20.80;75.10
66057;DHT22;52842;52.666;5.202;2022-09-09T10:01:22;20.80;74.40
66057;DHT22;52842;52.666;5.202;2022-09-09T10:03:50;20.70;74.40
66057;DHT22;52842;52.666;5.202;2022-09-09T10:06:17;20.70;74.40
66057;DHT22;52842;52.666;5.202;2022-09-09T10:08:44;20.70;74.40
66057;DHT22;52842;52.666;5.202;2022-09-09T10:14:00;20.80;74.50
66057;DHT22;52842;52.666;5.202;2022-09-09T10:16:31;20.80;74.60
66057;DHT22;52842;52.666;5.202;2022-09-09T10:19:01;20.80;74.70
66057;DHT22;52842;52.666;5.202;2022-09-09T10:21:38;20.80;74.70
66057;DHT22;52842;52.666;5.202;2022-09-09T10:24:15;20.80;74.80
66057;DHT22;52842;52.666;5.202;2022-09-09T10:26:49;20.80;74.80
66057;DHT22;52842;52.666;5.202;2022-09-09T10:32:20;20.80;74.70
66057;DHT22;52842;52.666;5.202;2022-09-09T10:34:55;20.80;74.70
66057;DHT22;52842;52.666;5.202;2022-09-09T10:37:26;20.80;74.70
66057;DHT22;52842;52.666;5.202;2022-09-09T10:39:58;20.80;74.70
66057;DHT22;52842;52.666;5.202;2022-09-09T10:42:27;20.80;74.70
66057;DHT22;52842;52.666;5.202;2022-09-09T10:45:00;20.80;74.70
66057;DHT22;52842;52.666;5.202;2022-09-09T10:47:35;20.80;74.70
66057;DHT22;52842;52.666;5.202;2022-09-09T10:50:12;20.80;74.80
66057;DHT22;52842;52.666;5.202;2022-09-09T10:52:44;20.80;74.80
66057;DHT22;52842;52.666;5.202;2022-09-09T10:55:15;20.80;74.70
66057;DHT22;52842;52.666;5.202;2022-09-09T10:57:43;20.80;74.80
66057;DHT22;52842;52.666;5.202;2022-09-09T11:00:14;20.80;75.00
66057;DHT22;52842;52.666;5.202;2022-09-09T11:02:43;20.80;75.10
66057;DHT22;52842;52.666;5.202;2022-09-09T11:05:10;20.90;75.20
66057;DHT22;52842;52.666;5.202;2022-09-09T11:07:41;20.90;75.20
66057;DHT22;52842;52.666;5.202;2022-09-09T11:10:14;20.90;75.10
66057;DHT22;52842;52.666;5.202;2022-09-09T11:12:43;20.90;75.00
66057;DHT22;52842;52.666;5.202;2022-09-09T11:15:14;20.90;75.00
66057;DHT22;52842;52.666;5.202;2022-09-09T11:17:46;20.90;75.00
66057;DHT22;52842;52.666;5.202;2022-09-09T11:20:14;20.90;75.20
66057;DHT22;52842;52.666;5.202;2022-09-09T11:22:43;20.90;75.20
66057;DHT22;52842;52.666;5.202;2022-09-09T11:25:10;20.90;75.40
66057;DHT22;52842;52.666;5.202;2022-09-09T11:27:42;20.90;75.40
66057;DHT22;52842;52.666;5.202;2022-09-09T11:30:20;20.90;75.50
66057;DHT22;52842;52.666;5.202;2022-09-09T11:35:33;21.00;75.60
66057;DHT22;52842;52.666;5.202;2022-09-09T11:38:08;21.00;75.60
66057;DHT22;52842;52.666;5.202;2022-09-09T11:40:41;21.00;75.40
66057;DHT22;52842;52.666;5.202;2022-09-09T11:43:09;21.00;75.30
66057;DHT22;52842;52.666;5.202;2022-09-09T11:45:38;21.00;75.30
66057;DHT22;52842;52.666;5.202;2022-09-09T11:48:21;21.00;75.20
66057;DHT22;52842;52.666;5.202;2022-09-09T11:50:58;20.90;75.00
66057;DHT22;52842;52.666;5.202;2022-09-09T11:53:25;21.00;75.20
66057;DHT22;52842;52.666;5.202;2022-09-09T11:56:05;21.00;75.40
66057;DHT22;52842;52.666;5.202;2022-09-09T11:58:37;21.00;75.40
66057;DHT22;52842;52.666;5.202;2022-09-09T12:04:11;21.00;75.50
66057;DHT22;52842;52.666;5.202;2022-09-09T12:06:44;21.00;75.50
66057;DHT22;52842;52.666;5.202;2022-09-09T12:12:06;21.00;75.70
66057;DHT22;52842;52.666;5.202;2022-09-09T12:14:37;21.00;75.80
66057;DHT22;52842;52.666;5.202;2022-09-09T12:17:17;21.00;75.70
66057;DHT22;52842;52.666;5.202;2022-09-09T12:19:46;21.00;75.80
66057;DHT22;52842;52.666;5.202;2022-09-09T12:22:16;21.00;75.70
66057;DHT22;52842;52.666;5.202;2022-09-09T12:24:48;21.00;75.60
66057;DHT22;52842;52.666;5.202;2022-09-09T12:27:19;21.10;76.20
66057;DHT22;52842;52.666;5.202;2022-09-09T12:29:50;21.00;75.40
66057;DHT22;52842;52.666;5.202;2022-09-09T12:32:20;21.10;75.50
66057;DHT22;52842;52.666;5.202;2022-09-09T12:34:49;21.10;75.40
66057;DHT22;52842;52.666;5.202;2022-09-09T12:37:23;21.00;75.40
66057;DHT22;52842;52.666;5.202;2022-09-09T12:39:52;21.10;75.30
66057;DHT22;52842;52.666;5.202;2022-09-09T12:42:21;21.10;75.30
66057;DHT22;52842;52.666;5.202;2022-09-09T12:44:51;21.10;75.20
66057;DHT22;52842;52.666;5.202;2022-09-09T12:47:18;21.10;75.20
66057;DHT22;52842;52.666;5.202;2022-09-09T12:49:46;21.10;75.20
66057;DHT22;52842;52.666;5.202;2022-09-09T12:52:17;21.00;75.20
66057;DHT22;52842;52.666;5.202;2022-09-09T12:54:46;21.10;75.40
66057;DHT22;52842;52.666;5.202;2022-09-09T12:57:13;21.10;75.40
66057;DHT22;52842;52.666;5.202;2022-09-09T12:59:41;21.10;75.40
66057;DHT22;52842;52.666;5.202;2022-09-09T13:02:11;21.10;75.40
66057;DHT22;52842;52.666;5.202;2022-09-09T13:04:42;21.10;75.50
66057;DHT22;52842;52.666;5.202;2022-09-09T13:07:10;21.10;75.40
66057;DHT22;52842;52.666;5.202;2022-09-09T13:09:37;21.10;75.40
66057;DHT22;52842;52.666;5.202;2022-09-09T13:12:06;21.10;75.40
66057;DHT22;52842;52.666;5.202;2022-09-09T13:14:38;21.10;75.50
66057;DHT22;52842;52.666;5.202;2022-09-09T13:17:05;21.10;75.50
66057;DHT22;52842;52.666;5.202;2022-09-09T13:19:34;21.10;75.40
66057;DHT22;52842;52.666;5.202;2022-09-09T13:22:10;21.10;75.50
66057;DHT22;52842;52.666;5.202;2022-09-09T13:24:37;21.10;75.60
66057;DHT22;52842;52.666;5.202;2022-09-09T13:27:19;21.10;75.70
66057;DHT22;52842;52.666;5.202;2022-09-09T13:29:51;21.10;75.70
66057;DHT22;52842;52.666;5.202;2022-09-09T13:32:21;21.00;75.70
66057;DHT22;52842;52.666;5.202;2022-09-09T13:34:50;21.10;75.80
66057;DHT22;52842;52.666;5.202;2022-09-09T13:37:18;21.10;75.90
66057;DHT22;52842;52.666;5.202;2022-09-09T13:39:50;21.10;75.90
66057;DHT22;52842;52.666;5.202;2022-09-09T13:42:23;21.10;76.10
66057;DHT22;52842;52.666;5.202;2022-09-09T13:44:51;21.10;76.50
66057;DHT22;52842;52.666;5.202;2022-09-09T13:47:18;21.10;76.90
66057;DHT22;52842;52.666;5.202;2022-09-09T13:49:45;21.10;77.10
66057;DHT22;52842;52.666;5.202;2022-09-09T13:52:13;21.20;77.40
66057;DHT22;52842;52.666;5.202;2022-09-09T13:54:40;21.20;77.60
66057;DHT22;52842;52.666;5.202;2022-09-09T13:57:13;21.20;77.50
66057;DHT22;52842;52.666;5.202;2022-09-09T13:59:42;21.20;77.50
66057;DHT22;52842;52.666;5.202;2022-09-09T14:02:08;21.20;77.60
66057;DHT22;52842;52.666;5.202;2022-09-09T14:04:35;21.20;77.70
66057;DHT22;52842;52.666;5.202;2022-09-09T14:07:02;21.20;77.80
66057;DHT22;52842;52.666;5.202;2022-09-09T14:09:28;21.30;78.00
66057;DHT22;52842;52.666;5.202;2022-09-09T14:11:55;21.30;78.10
66057;DHT22;52842;52.666;5.202;2022-09-09T14:14:22;21.30;78.20
66057;DHT22;52842;52.666;5.202;2022-09-09T14:16:50;21.30;78.20
66057;DHT22;52842;52.666;5.202;2022-09-09T14:19:16;21.30;78.30
66057;DHT22;52842;52.666;5.202;2022-09-09T14:21:43;21.30;78.30
66057;DHT22;52842;52.666;5.202;2022-09-09T14:24:10;21.40;78.30
66057;DHT22;52842;52.666;5.202;2022-09-09T14:26:37;21.40;78.30
66057;DHT22;52842;52.666;5.202;2022-09-09T14:29:04;21.40;78.30
66057;DHT22;52842;52.666;5.202;2022-09-09T14:31:31;21.40;78.30
66057;DHT22;52842;52.666;5.202;2022-09-09T14:33:59;21.40;78.30
66057;DHT22;52842;52.666;5.202;2022-09-09T14:36:26;21.40;78.30
66057;DHT22;52842;52.666;5.202;2022-09-09T14:38:52;21.40;78.20
66057;DHT22;52842;52.666;5.202;2022-09-09T14:41:21;21.40;78.20
66057;DHT22;52842;52.666;5.202;2022-09-09T14:43:48;21.40;78.10
66057;DHT22;52842;52.666;5.202;2022-09-09T14:46:15;21.40;78.10
66057;DHT22;52842;52.666;5.202;2022-09-09T14:48:43;21.40;78.10
66057;DHT22;52842;52.666;5.202;2022-09-09T14:51:12;21.40;78.10
66057;DHT22;52842;52.666;5.202;2022-09-09T14:53:40;21.40;78.10
66057;DHT22;52842;52.666;5.202;2022-09-09T14:56:07;21.40;78.10
66057;DHT22;52842;52.666;5.202;2022-09-09T14:58:35;21.40;78.20
66057;DHT22;52842;52.666;5.202;2022-09-09T15:01:02;21.50;78.30
66057;DHT22;52842;52.666;5.202;2022-09-09T15:03:29;21.40;78.20
66057;DHT22;52842;52.666;5.202;2022-09-09T15:05:56;21.50;78.30
66057;DHT22;52842;52.666;5.202;2022-09-09T15:08:25;21.50;78.30
66057;DHT22;52842;52.666;5.202;2022-09-09T15:10:58;21.50;78.30
66057;DHT22;52842;52.666;5.202;2022-09-09T15:13:24;21.50;78.30
66057;DHT22;52842;52.666;5.202;2022-09-09T15:15:51;21.50;78.30
66057;DHT22;52842;52.666;5.202;2022-09-09T15:18:19;21.50;78.30
66057;DHT22;52842;52.666;5.202;2022-09-09T15:20:46;21.50;78.30
66057;DHT22;52842;52.666;5.202;2022-09-09T15:23:13;21.50;78.30
66057;DHT22;52842;52.666;5.202;2022-09-09T15:25:50;21.50;78.30
66057;DHT22;52842;52.666;5.202;2022-09-09T15:28:18;21.50;78.30
66057;DHT22;52842;52.666;5.202;2022-09-09T15:30:46;21.60;78.40
66057;DHT22;52842;52.666;5.202;2022-09-09T15:33:13;21.50;78.30
66057;DHT22;52842;52.666;5.202;2022-09-09T15:35:40;21.60;78.40
66057;DHT22;52842;52.666;5.202;2022-09-09T15:38:06;21.60;78.40
66057;DHT22;52842;52.666;5.202;2022-09-09T15:40:33;21.50;78.30
66057;DHT22;52842;52.666;5.202;2022-09-09T15:43:01;21.50;78.40
66057;DHT22;52842;52.666;5.202;2022-09-09T15:45:30;21.60;78.40
66057;DHT22;52842;52.666;5.202;2022-09-09T15:47:57;21.50;78.10
66057;DHT22;52842;52.666;5.202;2022-09-09T15:50:24;21.60;78.20
66057;DHT22;52842;52.666;5.202;2022-09-09T15:52:51;21.60;78.20
66057;DHT22;52842;52.666;5.202;2022-09-09T15:55:18;21.60;78.30